createdAt,value
2019-02-24T00:01:46.888Z,54.30
2019-02-24T00:04:15.341Z,53.40
2019-02-24T00:06:43.797Z,53.30
2019-02-24T00:09:12.943Z,53.90
2019-02-24T00:11:41.803Z,53.70
2019-02-24T00:14:10.587Z,54.00
2019-02-24T00:16:39.024Z,53.20
2019-02-24T00:19:07.856Z,52.60
2019-02-24T00:21:36.336Z,52.50
2019-02-24T00:24:04.773Z,52.70
2019-02-24T00:26:33.633Z,52.30
2019-02-24T00:29:02.058Z,52.70
2019-02-24T00:31:30.556Z,52.90
2019-02-24T00:33:59.080Z,52.70
2019-02-24T00:36:27.620Z,53.00
2019-02-24T00:38:56.330Z,53.20
2019-02-24T00:41:25.112Z,53.10
2019-02-24T00:43:53.569Z,53.30
2019-02-24T00:46:22.016Z,53.10
2019-02-24T00:48:50.475Z,53.20
2019-02-24T00:51:18.940Z,52.20
2019-02-24T00:53:47.420Z,53.00
2019-02-24T00:56:15.866Z,53.50
2019-02-24T00:58:44.702Z,53.80
2019-02-24T01:01:13.124Z,53.80
2019-02-24T01:03:41.618Z,53.40
2019-02-24T01:06:10.182Z,54.50
2019-02-24T01:08:38.645Z,53.90
2019-02-24T01:11:07.079Z,53.70
2019-02-24T01:13:35.646Z,54.50
2019-02-24T01:16:04.549Z,54.70
2019-02-24T01:18:33.020Z,54.10
2019-02-24T01:21:01.457Z,53.40
2019-02-24T01:23:29.938Z,53.20
2019-02-24T01:25:58.687Z,54.10
2019-02-24T01:28:27.485Z,53.70
2019-02-24T01:30:56.012Z,54.00
2019-02-24T01:33:24.470Z,54.10
2019-02-24T01:35:52.984Z,53.50
2019-02-24T01:38:21.445Z,53.50
2019-02-24T01:40:49.911Z,54.50
2019-02-24T01:43:18.356Z,54.40
2019-02-24T01:45:46.810Z,54.10
2019-02-24T01:48:15.279Z,53.90
2019-02-24T01:50:43.747Z,54.00
2019-02-24T01:53:12.267Z,54.20
2019-02-24T01:55:41.079Z,54.30
2019-02-24T01:58:09.538Z,54.70
2019-02-24T02:00:37.991Z,54.70
2019-02-24T02:03:06.431Z,54.50
2019-02-24T02:05:34.926Z,54.00
2019-02-24T02:08:03.428Z,53.60
2019-02-24T02:10:31.875Z,53.80
2019-02-24T02:13:00.346Z,52.70
2019-02-24T02:15:28.792Z,52.90
2019-02-24T02:17:57.249Z,53.10
2019-02-24T02:20:25.789Z,53.50
2019-02-24T02:22:54.501Z,53.90
2019-02-24T02:25:22.940Z,54.60
2019-02-24T02:27:51.762Z,54.10
2019-02-24T02:30:20.527Z,53.90
2019-02-24T02:32:49.333Z,54.50
2019-02-24T02:35:17.994Z,54.40
2019-02-24T02:37:46.500Z,54.90
2019-02-24T02:40:14.944Z,54.70
2019-02-24T02:42:43.753Z,54.30
2019-02-24T02:45:12.541Z,54.60
2019-02-24T02:47:40.988Z,55.00
2019-02-24T02:50:09.611Z,55.40
2019-02-24T02:52:38.498Z,55.00
2019-02-24T02:55:07.799Z,55.00
2019-02-24T02:57:36.349Z,55.10
2019-02-24T03:00:13.537Z,55.40
2019-02-24T03:02:42.017Z,55.00
2019-02-24T03:05:10.462Z,54.10
2019-02-24T03:07:40.553Z,53.90
2019-02-24T03:10:09.131Z,54.40
2019-02-24T03:12:37.935Z,54.50
2019-02-24T03:15:06.528Z,53.70
2019-02-24T03:17:35.283Z,52.80
2019-02-24T03:20:03.733Z,53.00
2019-02-24T03:22:32.192Z,54.20
2019-02-24T03:25:00.638Z,53.80
2019-02-24T03:27:29.413Z,54.10
2019-02-24T03:29:57.889Z,54.20
2019-02-24T03:32:26.367Z,53.90
2019-02-24T03:34:54.878Z,53.40
2019-02-24T03:37:23.347Z,53.80
2019-02-24T03:39:51.789Z,54.80
2019-02-24T03:42:20.228Z,55.30
2019-02-24T03:44:48.700Z,54.90
2019-02-24T03:47:17.154Z,54.00
2019-02-24T03:49:45.941Z,54.10
2019-02-24T03:52:14.423Z,53.70
2019-02-24T03:54:42.890Z,54.50
2019-02-24T03:57:11.786Z,53.10
2019-02-24T03:59:40.568Z,53.90
2019-02-24T04:02:09.038Z,53.60
2019-02-24T04:04:37.493Z,53.30
2019-02-24T04:07:05.937Z,53.90
2019-02-24T04:09:34.419Z,55.00
2019-02-24T04:12:03.023Z,54.20
2019-02-24T04:14:31.472Z,53.90
2019-02-24T04:16:59.952Z,55.50
2019-02-24T04:19:28.399Z,55.20
2019-02-24T04:21:56.863Z,54.50
2019-02-24T04:24:25.425Z,55.90
2019-02-24T04:26:53.953Z,55.70
2019-02-24T04:29:24.784Z,55.70
2019-02-24T04:31:52.610Z,55.40
2019-02-24T04:34:21.146Z,55.40
2019-02-24T04:36:49.960Z,55.40
2019-02-24T04:39:18.766Z,54.80
2019-02-24T04:41:47.204Z,54.10
2019-02-24T04:44:16.015Z,54.10
2019-02-24T04:46:44.809Z,54.30
2019-02-24T04:49:13.233Z,53.20
2019-02-24T04:51:41.795Z,53.50
2019-02-24T04:54:10.210Z,53.50
2019-02-24T04:56:39.057Z,55.30
2019-02-24T04:59:08.709Z,54.80
2019-02-24T05:01:37.494Z,55.00
2019-02-24T05:04:05.933Z,54.60
2019-02-24T05:06:34.368Z,54.20
2019-02-24T05:09:02.921Z,54.00
2019-02-24T05:11:31.374Z,53.90
2019-02-24T05:13:59.861Z,53.60
2019-02-24T05:16:28.257Z,53.30
2019-02-24T05:18:56.738Z,53.60
2019-02-24T05:21:25.219Z,53.60
2019-02-24T05:23:53.666Z,54.40
2019-02-24T05:26:22.132Z,54.70
2019-02-24T05:28:50.605Z,55.10
2019-02-24T05:31:19.057Z,55.50
2019-02-24T05:33:47.877Z,55.70
2019-02-24T05:36:16.687Z,55.30
2019-02-24T05:38:45.153Z,55.90
2019-02-24T05:41:13.950Z,54.70
2019-02-24T05:43:42.497Z,54.10
2019-02-24T05:46:11.322Z,54.40
2019-02-24T05:48:39.775Z,54.50
2019-02-24T05:51:08.588Z,53.20
2019-02-24T05:53:37.045Z,53.50
2019-02-24T05:56:05.575Z,54.10
2019-02-24T05:58:34.094Z,54.20
2019-02-24T06:01:02.612Z,54.60
2019-02-24T06:03:31.079Z,54.70
2019-02-24T06:05:59.527Z,54.70
2019-02-24T06:08:28.377Z,53.90
2019-02-24T06:10:56.923Z,54.60
2019-02-24T06:13:25.439Z,54.50
2019-02-24T06:15:53.911Z,55.00
2019-02-24T06:18:22.394Z,53.80
2019-02-24T06:20:50.851Z,53.80
2019-02-24T06:23:19.674Z,54.30
2019-02-24T06:25:48.502Z,53.50
2019-02-24T06:28:16.966Z,53.60
2019-02-24T06:30:45.372Z,54.00
2019-02-24T06:33:13.879Z,54.50
2019-02-24T06:35:42.421Z,54.20
2019-02-24T06:38:10.869Z,54.50
2019-02-24T06:40:39.318Z,55.20
2019-02-24T06:43:08.115Z,54.50
2019-02-24T06:45:36.558Z,54.90
2019-02-24T06:48:05.008Z,54.70
2019-02-24T06:50:50.442Z,55.10
2019-02-24T06:53:18.923Z,54.80
2019-02-24T06:55:47.731Z,54.20
2019-02-24T06:58:16.189Z,54.60
2019-02-24T07:00:44.651Z,54.60
2019-02-24T07:03:13.123Z,54.60
2019-02-24T07:05:41.580Z,54.50
2019-02-24T07:08:10.026Z,54.50
2019-02-24T07:10:38.484Z,54.60
2019-02-24T07:13:06.943Z,55.60
2019-02-24T07:15:35.404Z,56.10
2019-02-24T07:18:04.284Z,56.50
2019-02-24T07:20:32.728Z,56.70
2019-02-24T07:23:01.165Z,56.30
2019-02-24T07:25:29.645Z,56.30
2019-02-24T07:27:58.091Z,55.80
2019-02-24T07:30:26.976Z,56.70
2019-02-24T07:32:55.453Z,56.40
2019-02-24T07:35:23.924Z,84.40
2019-02-24T07:37:52.331Z,62.10
2019-02-24T07:40:20.849Z,70.10
2019-02-24T07:42:52.364Z,75.90
2019-02-24T07:45:21.259Z,51.90
2019-02-24T07:47:50.045Z,53.60
2019-02-24T07:50:18.929Z,49.90
2019-02-24T07:52:47.751Z,50.00
2019-02-24T07:55:16.219Z,50.50
2019-02-24T07:57:44.735Z,49.90
2019-02-24T08:00:13.194Z,50.20
2019-02-24T08:02:41.729Z,50.70
2019-02-24T08:05:10.335Z,51.20
2019-02-24T08:07:38.880Z,51.40
2019-02-24T08:10:08.069Z,72.90
2019-02-24T08:12:40.808Z,53.40
2019-02-24T08:15:10.157Z,48.50
2019-02-24T08:17:38.663Z,47.50
2019-02-24T08:20:09.049Z,47.40
2019-02-24T08:22:37.526Z,48.00
2019-02-24T08:25:07.413Z,48.80
2019-02-24T08:27:35.870Z,49.50
2019-02-24T08:30:06.549Z,49.60
2019-02-24T08:32:35.018Z,50.10
2019-02-24T08:35:03.970Z,49.60
2019-02-24T08:37:32.484Z,49.80
2019-02-24T08:40:00.949Z,50.40
2019-02-24T08:42:29.400Z,50.00
2019-02-24T08:44:57.914Z,50.30
2019-02-24T08:47:26.386Z,50.90
2019-02-24T08:49:54.825Z,50.40
2019-02-24T08:52:23.302Z,49.30
2019-02-24T08:54:51.746Z,49.70
2019-02-24T08:57:20.213Z,50.10
2019-02-24T08:59:48.676Z,50.60
2019-02-24T09:02:17.142Z,49.50
2019-02-24T09:04:45.576Z,48.60
2019-02-24T09:07:14.431Z,48.60
2019-02-24T09:09:42.867Z,49.00
2019-02-24T09:12:11.596Z,48.60
2019-02-24T09:14:40.692Z,48.90
2019-02-24T09:17:09.125Z,48.00
2019-02-24T09:19:37.573Z,48.30
2019-02-24T09:22:06.042Z,47.60
2019-02-24T09:24:34.483Z,47.70
2019-02-24T09:27:03.002Z,47.60
2019-02-24T09:29:31.482Z,47.70
2019-02-24T09:31:59.941Z,47.00
2019-02-24T09:34:28.854Z,47.10
2019-02-24T09:36:57.626Z,46.90
2019-02-24T09:39:26.064Z,46.20
2019-02-24T09:41:54.515Z,45.90
2019-02-24T09:44:23.690Z,45.90
2019-02-24T09:46:52.136Z,45.60
2019-02-24T09:49:21.068Z,43.50
2019-02-24T09:51:49.506Z,43.10
2019-02-24T09:54:18.000Z,41.80
2019-02-24T09:56:46.499Z,43.30
2019-02-24T09:59:14.952Z,43.90
2019-02-24T10:01:43.412Z,43.60
2019-02-24T10:04:11.880Z,44.10
2019-02-24T10:06:40.388Z,44.10
2019-02-24T10:09:08.914Z,43.80
2019-02-24T10:11:37.377Z,43.20
2019-02-24T10:14:05.843Z,42.40
2019-02-24T10:16:34.668Z,41.60
2019-02-24T10:19:03.131Z,41.10
2019-02-24T10:21:31.578Z,41.60
2019-02-24T10:24:00.041Z,41.30
2019-02-24T10:26:28.516Z,41.70
2019-02-24T10:28:57.050Z,40.10
2019-02-24T10:31:25.857Z,39.60
2019-02-24T10:33:54.409Z,39.50
2019-02-24T10:36:22.861Z,40.10
2019-02-24T10:38:51.310Z,38.50
2019-02-24T10:41:20.303Z,37.50
2019-02-24T10:43:48.834Z,37.00
2019-02-24T10:46:17.311Z,37.40
2019-02-24T10:48:45.757Z,37.20
2019-02-24T10:51:14.213Z,36.90
2019-02-24T10:53:42.676Z,35.80
2019-02-24T10:56:11.122Z,35.60
2019-02-24T10:58:41.307Z,36.20
2019-02-24T11:01:10.185Z,35.60
2019-02-24T11:03:38.706Z,35.60
2019-02-24T11:06:07.261Z,34.80
2019-02-24T11:08:35.774Z,35.10
2019-02-24T11:11:04.302Z,33.90
2019-02-24T11:13:32.837Z,33.40
2019-02-24T11:16:01.297Z,33.50
2019-02-24T11:18:29.748Z,33.20
2019-02-24T11:20:58.549Z,32.60
2019-02-24T11:23:27.072Z,32.00
2019-02-24T11:25:55.517Z,32.60
2019-02-24T11:28:24.001Z,32.10
2019-02-24T11:30:52.777Z,33.20
2019-02-24T11:33:21.243Z,31.90
2019-02-24T11:35:49.778Z,32.00
2019-02-24T11:38:18.253Z,32.50
2019-02-24T11:40:46.708Z,30.90
2019-02-24T11:43:15.528Z,32.50
2019-02-24T11:45:44.120Z,30.80
2019-02-24T11:48:12.590Z,31.70
2019-02-24T11:50:41.042Z,29.90
2019-02-24T11:53:09.488Z,30.70
2019-02-24T11:55:38.305Z,29.60
2019-02-24T11:58:06.754Z,29.20
2019-02-24T12:00:35.204Z,27.70
2019-02-24T12:03:03.839Z,27.80
2019-02-24T12:05:32.648Z,28.70
2019-02-24T12:08:01.100Z,28.20
2019-02-24T12:10:29.911Z,28.90
2019-02-24T12:12:58.377Z,28.80
2019-02-24T12:15:27.182Z,29.20
2019-02-24T12:17:55.993Z,28.80
2019-02-24T12:20:24.535Z,27.90
2019-02-24T12:22:52.998Z,27.80
2019-02-24T12:25:21.826Z,28.40
2019-02-24T12:27:50.293Z,29.60
2019-02-24T12:30:18.828Z,28.90
2019-02-24T12:32:47.676Z,28.60
2019-02-24T12:35:16.487Z,28.50
2019-02-24T12:37:44.960Z,27.70
2019-02-24T12:40:14.863Z,28.20
2019-02-24T12:42:43.388Z,27.60
2019-02-24T12:45:12.428Z,28.10
2019-02-24T12:47:40.875Z,27.70
2019-02-24T12:50:14.826Z,28.60
2019-02-24T12:52:43.379Z,28.40
2019-02-24T12:55:12.263Z,29.30
2019-02-24T12:57:41.664Z,29.20
2019-02-24T13:00:25.303Z,29.80
2019-02-24T13:02:53.773Z,31.10
2019-02-24T13:05:22.601Z,31.20
2019-02-24T13:07:51.053Z,31.90
2019-02-24T13:10:20.065Z,32.20
2019-02-24T13:12:48.589Z,33.10
2019-02-24T13:15:17.125Z,32.70
2019-02-24T13:17:45.743Z,32.40
2019-02-24T13:20:14.621Z,32.50
2019-02-24T13:22:43.073Z,33.20
2019-02-24T13:25:13.349Z,33.10
2019-02-24T13:27:41.806Z,33.80
2019-02-24T13:30:12.300Z,34.40
2019-02-24T13:32:40.782Z,34.60
2019-02-24T13:35:09.771Z,34.90
2019-02-24T13:37:38.227Z,34.60
2019-02-24T13:40:14.694Z,34.20
2019-02-24T13:42:43.142Z,34.00
2019-02-24T13:45:19.573Z,34.70
2019-02-24T13:47:48.025Z,34.60
2019-02-24T13:50:16.894Z,34.70
2019-02-24T13:52:45.364Z,34.50
2019-02-24T13:55:15.773Z,34.80
2019-02-24T13:57:44.220Z,35.10
2019-02-24T14:00:21.040Z,35.80
2019-02-24T14:02:49.943Z,35.50
2019-02-24T14:05:18.843Z,35.70
2019-02-24T14:07:47.305Z,34.70
2019-02-24T14:10:15.897Z,35.60
2019-02-24T14:12:44.420Z,35.50
2019-02-24T14:15:14.409Z,35.10
2019-02-24T14:17:43.165Z,34.80
2019-02-24T14:20:13.060Z,35.10
2019-02-24T14:22:41.533Z,35.60
2019-02-24T14:25:11.433Z,36.00
2019-02-24T14:27:39.947Z,36.30
2019-02-24T14:30:16.151Z,35.90
2019-02-24T14:32:44.749Z,36.00
2019-02-24T14:35:16.098Z,35.90
2019-02-24T14:37:44.582Z,36.00
2019-02-24T14:40:13.424Z,36.00
2019-02-24T14:42:42.631Z,36.00
2019-02-24T14:45:24.939Z,35.80
2019-02-24T14:47:53.463Z,36.80
2019-02-24T14:50:21.941Z,36.70
2019-02-24T14:52:50.396Z,36.70
2019-02-24T14:55:18.834Z,37.10
2019-02-24T14:57:47.328Z,37.40
2019-02-24T15:00:18.228Z,37.60
2019-02-24T15:02:57.784Z,37.50
2019-02-24T15:05:26.497Z,38.40
2019-02-24T15:07:55.309Z,37.60
2019-02-24T15:10:24.822Z,37.70
2019-02-24T15:12:53.292Z,36.30
2019-02-24T15:15:32.506Z,36.90
2019-02-24T15:17:56.775Z,37.20
2019-02-24T15:20:25.418Z,37.00
2019-02-24T15:22:53.898Z,36.90
2019-02-24T15:25:29.706Z,37.00
2019-02-24T15:27:58.185Z,36.90
2019-02-24T15:30:39.102Z,37.50
2019-02-24T15:33:07.625Z,37.40
2019-02-24T15:35:36.097Z,37.70
2019-02-24T15:38:04.798Z,37.40
2019-02-24T15:40:33.259Z,37.80
2019-02-24T15:43:01.693Z,38.60
2019-02-24T15:45:30.467Z,38.40
2019-02-24T15:47:58.941Z,39.30
2019-02-24T15:50:27.394Z,39.00
2019-02-24T15:52:55.878Z,39.40
2019-02-24T15:55:24.501Z,39.10
2019-02-24T15:57:52.941Z,39.30
2019-02-24T16:00:22.741Z,39.70
2019-02-24T16:02:51.214Z,39.30
2019-02-24T16:05:19.661Z,39.70
2019-02-24T16:07:48.226Z,40.90
2019-02-24T16:10:22.043Z,41.80
2019-02-24T16:12:50.926Z,42.50
2019-02-24T16:15:25.241Z,42.60
2019-02-24T16:17:53.702Z,43.00
2019-02-24T16:20:36.468Z,43.70
2019-02-24T16:23:05.191Z,45.40
2019-02-24T16:28:09.683Z,43.60
2019-02-24T16:30:38.802Z,43.70
2019-02-24T16:33:10.544Z,44.30
2019-02-24T16:35:38.407Z,44.30
2019-02-24T16:38:07.392Z,45.30
2019-02-24T16:40:35.977Z,45.20
2019-02-24T16:43:04.521Z,46.30
2019-02-24T16:48:02.721Z,47.60
2019-02-24T16:50:31.190Z,48.10
2019-02-24T16:52:59.638Z,46.80
2019-02-24T16:56:04.157Z,46.90
2019-02-24T16:58:32.686Z,46.80
2019-02-24T17:01:02.158Z,48.10
2019-02-24T17:03:30.806Z,48.10
2019-02-24T17:06:01.396Z,48.70
2019-02-24T17:08:29.933Z,48.30
2019-02-24T17:11:07.086Z,48.90
2019-02-24T17:13:29.044Z,49.10
2019-02-24T17:15:57.634Z,48.70
2019-02-24T17:18:26.272Z,49.10
2019-02-24T17:20:54.808Z,49.10
2019-02-24T17:23:23.743Z,49.10
2019-02-24T17:25:53.040Z,49.00
2019-02-24T17:28:21.868Z,48.70
2019-02-24T17:30:50.451Z,49.20
2019-02-24T17:33:19.034Z,50.20
2019-02-24T17:35:47.812Z,50.10
2019-02-24T17:38:16.342Z,51.40
2019-02-24T17:40:44.836Z,50.50
2019-02-24T17:43:13.303Z,50.20
2019-02-24T17:45:41.760Z,50.60
2019-02-24T17:48:10.237Z,50.30
2019-02-24T17:50:38.698Z,50.80
2019-02-24T17:53:07.141Z,50.00
2019-02-24T17:55:35.623Z,50.50
2019-02-24T17:58:04.438Z,50.60
2019-02-24T18:00:43.419Z,51.00
2019-02-24T18:03:11.946Z,51.70
2019-02-24T18:05:40.425Z,65.30
2019-02-24T18:08:09.324Z,51.60
2019-02-24T18:10:37.820Z,50.60
2019-02-24T18:13:06.284Z,51.10
2019-02-24T18:15:34.736Z,62.90
2019-02-24T18:18:03.561Z,63.30
2019-02-24T18:20:32.032Z,51.50
2019-02-24T18:23:01.547Z,51.00
2019-02-24T18:25:30.349Z,51.10
2019-02-24T18:27:58.828Z,51.40
2019-02-24T18:30:31.087Z,51.60
2019-02-24T18:32:59.545Z,52.20
2019-02-24T18:35:28.383Z,53.30
2019-02-24T18:37:56.837Z,52.80
2019-02-24T18:40:25.416Z,52.10
2019-02-24T18:43:00.249Z,52.50
2019-02-24T18:45:24.742Z,52.20
2019-02-24T18:47:53.194Z,52.80
2019-02-24T18:50:21.663Z,53.50
2019-02-24T18:52:50.481Z,54.40
2019-02-24T18:55:18.934Z,53.50
2019-02-24T18:57:47.413Z,53.00
2019-02-24T19:00:20.163Z,53.20
2019-02-24T19:02:49.122Z,53.20
2019-02-24T19:05:17.817Z,66.40
2019-02-24T19:07:46.696Z,57.70
2019-02-24T19:10:17.193Z,58.10
2019-02-24T19:12:45.794Z,48.10
2019-02-24T19:15:16.503Z,48.20
2019-02-24T19:17:45.321Z,48.80
2019-02-24T19:20:16.336Z,49.30
2019-02-24T19:22:44.849Z,50.30
2019-02-24T19:25:14.102Z,50.30
2019-02-24T19:27:42.578Z,50.90
2019-02-24T19:30:19.204Z,51.00
2019-02-24T19:32:47.659Z,51.80
2019-02-24T19:35:17.041Z,52.00
2019-02-24T19:37:45.866Z,51.90
2019-02-24T19:40:23.473Z,52.20
2019-02-24T19:42:51.913Z,52.20
2019-02-24T19:45:22.770Z,52.60
2019-02-24T19:47:51.238Z,52.60
2019-02-24T19:50:19.760Z,52.50
2019-02-24T19:52:48.285Z,52.40
2019-02-24T19:55:17.544Z,52.40
2019-02-24T19:57:46.420Z,52.70
2019-02-24T20:00:20.078Z,52.80
2019-02-24T20:02:48.902Z,53.20
2019-02-24T20:05:17.527Z,54.20
2019-02-24T20:07:46.844Z,53.80
2019-02-24T20:10:18.671Z,54.40
2019-02-24T20:12:47.108Z,54.60
2019-02-24T20:15:16.288Z,53.50
2019-02-24T20:17:45.024Z,53.00
2019-02-24T20:20:17.761Z,53.10
2019-02-24T20:22:46.461Z,53.10
2019-02-24T20:25:19.932Z,53.10
2019-02-24T20:27:48.377Z,53.60
2019-02-24T20:30:30.736Z,53.50
2019-02-24T20:32:59.624Z,52.90
2019-02-24T20:35:28.128Z,53.20
2019-02-24T21:05:32.759Z,53.20
2019-02-24T21:08:01.287Z,53.00
2019-02-24T21:10:30.042Z,53.30
2019-02-24T21:12:58.859Z,53.80
2019-02-24T21:15:27.295Z,53.50
2019-02-24T21:17:55.829Z,53.20
2019-02-24T21:20:26.881Z,53.60
2019-02-24T21:22:55.440Z,53.40
2019-02-24T21:25:24.207Z,53.60
2019-02-24T21:27:52.739Z,53.50
2019-02-24T21:30:21.622Z,52.60
2019-02-24T21:32:50.472Z,52.60
2019-02-24T21:35:18.994Z,52.70
2019-02-24T21:37:47.441Z,53.00
2019-02-24T21:40:17.965Z,53.00
2019-02-24T21:42:46.591Z,53.30
2019-02-24T21:45:25.393Z,53.40
2019-02-24T21:47:53.843Z,52.60
2019-02-24T21:50:22.311Z,53.60
2019-02-24T21:52:50.848Z,53.90
2019-02-24T21:55:19.387Z,52.80
2019-02-24T21:57:47.913Z,52.90
2019-02-24T22:00:24.025Z,53.30
2019-02-24T22:02:52.664Z,52.50
2019-02-24T22:05:21.510Z,52.50
2019-02-24T22:07:49.960Z,53.20
2019-02-24T22:10:18.423Z,52.90
2019-02-24T22:12:46.859Z,53.50
2019-02-24T22:15:22.953Z,53.10
2019-02-24T22:17:51.401Z,53.00
2019-02-24T22:20:19.855Z,53.10
2019-02-24T22:22:48.389Z,53.00
2019-02-24T22:25:17.559Z,53.60
2019-02-24T22:27:46.024Z,52.70
2019-02-24T22:30:22.436Z,52.50
2019-02-24T22:32:50.963Z,52.50
2019-02-24T22:35:19.485Z,52.30
2019-02-24T22:37:48.090Z,53.20
2019-02-24T22:40:17.200Z,53.40
2019-02-24T22:42:46.380Z,53.90
2019-02-24T22:45:18.906Z,53.90
2019-02-24T22:47:47.431Z,54.30
2019-02-24T22:50:16.586Z,53.20
2019-02-24T22:52:46.397Z,53.00
2019-02-24T22:55:16.044Z,53.80
2019-02-24T22:57:44.669Z,54.70
2019-02-24T23:00:47.776Z,53.80
2019-02-24T23:03:16.218Z,54.50
2019-02-24T23:05:44.661Z,54.10
2019-02-24T23:08:13.182Z,54.30
2019-02-24T23:10:41.920Z,54.00
2019-02-24T23:13:10.450Z,53.60
2019-02-24T23:15:39.193Z,53.20
2019-02-24T23:18:07.667Z,53.80
2019-02-24T23:20:36.184Z,53.10
2019-02-24T23:23:04.789Z,53.70
2019-02-24T23:25:33.263Z,52.80
2019-02-24T23:28:02.012Z,53.40
2019-02-24T23:30:30.795Z,53.50
2019-02-24T23:32:59.709Z,53.50
2019-02-24T23:35:28.158Z,54.00
2019-02-24T23:37:56.980Z,54.80
2019-02-24T23:40:25.440Z,54.30
2019-02-24T23:42:54.227Z,52.90
2019-02-24T23:45:22.671Z,52.90
2019-02-24T23:47:51.095Z,52.60
2019-02-24T23:50:19.578Z,52.40
2019-02-24T23:52:48.361Z,52.90
2019-02-24T23:55:16.831Z,52.50
2019-02-24T23:57:45.283Z,53.60
